sensor_id;sensor_type;location;lat;lon;timestamp;temperature;humidity
9772;DHT22;4925;52.588;13.370;2022-09-12T00:01:28;14.90;99.90
9772;DHT22;4925;52.588;13.370;2022-09-12T00:03:57;14.90;99.90
9772;DHT22;4925;52.588;13.370;2022-09-12T00:06:29;14.80;99.90
9772;DHT22;4925;52.588;13.370;2022-09-12T00:08:58;14.80;99.90
9772;DHT22;4925;52.588;13.370;2022-09-12T00:11:24;14.70;99.90
9772;DHT22;4925;52.588;13.370;2022-09-12T00:13:54;14.70;99.90
9772;DHT22;4925;52.588;13.370;2022-09-12T00:16:21;14.70;99.90
9772;DHT22;4925;52.588;13.370;2022-09-12T00:18:48;14.60;99.90
9772;DHT22;4925;52.588;13.370;2022-09-12T00:21:15;14.60;99.90
9772;DHT22;4925;52.588;13.370;2022-09-12T00:23:41;14.60;99.90
9772;DHT22;4925;52.588;13.370;2022-09-12T00:26:07;14.50;99.90
9772;DHT22;4925;52.588;13.370;2022-09-12T00:28:34;14.50;99.90
9772;DHT22;4925;52.588;13.370;2022-09-12T00:31:12;14.50;99.90
9772;DHT22;4925;52.588;13.370;2022-09-12T00:33:39;14.40;99.90
9772;DHT22;4925;52.588;13.370;2022-09-12T00:36:07;14.40;99.90
9772;DHT22;4925;52.588;13.370;2022-09-12T00:38:34;14.40;99.90
9772;DHT22;4925;52.588;13.370;2022-09-12T00:41:03;14.40;99.90
9772;DHT22;4925;52.588;13.370;2022-09-12T00:46:01;14.40;99.90
9772;DHT22;4925;52.588;13.370;2022-09-12T00:48:35;14.30;99.90
9772;DHT22;4925;52.588;13.370;2022-09-12T00:51:02;14.40;99.90
9772;DHT22;4925;52.588;13.370;2022-09-12T00:53:28;14.20;99.90
9772;DHT22;4925;52.588;13.370;2022-09-12T00:55:54;14.20;99.90
9772;DHT22;4925;52.588;13.370;2022-09-12T00:58:22;14.20;99.90
9772;DHT22;4925;52.588;13.370;2022-09-12T01:00:48;14.20;99.90
9772;DHT22;4925;52.588;13.370;2022-09-12T01:03:17;14.20;99.90
9772;DHT22;4925;52.588;13.370;2022-09-12T01:06:09;14.20;99.90
9772;DHT22;4925;52.588;13.370;2022-09-12T01:08:37;14.20;99.90
9772;DHT22;4925;52.588;13.370;2022-09-12T01:11:07;14.10;99.90
9772;DHT22;4925;52.588;13.370;2022-09-12T01:13:34;14.10;99.90
9772;DHT22;4925;52.588;13.370;2022-09-12T01:16:03;14.00;99.90
9772;DHT22;4925;52.588;13.370;2022-09-12T01:24:14;13.90;99.90
9772;DHT22;4925;52.588;13.370;2022-09-12T01:27:15;14.00;99.90
9772;DHT22;4925;52.588;13.370;2022-09-12T01:30:04;13.90;99.90
9772;DHT22;4925;52.588;13.370;2022-09-12T01:32:45;13.90;99.90
9772;DHT22;4925;52.588;13.370;2022-09-12T01:41:05;13.80;99.90
9772;DHT22;4925;52.588;13.370;2022-09-12T01:43:49;13.80;99.90
9772;DHT22;4925;52.588;13.370;2022-09-12T01:46:19;13.70;99.90
9772;DHT22;4925;52.588;13.370;2022-09-12T01:51:37;13.70;99.90
9772;DHT22;4925;52.588;13.370;2022-09-12T01:54:21;13.70;99.90
9772;DHT22;4925;52.588;13.370;2022-09-12T01:56:52;13.60;99.90
9772;DHT22;4925;52.588;13.370;2022-09-12T01:59:33;13.60;99.90
9772;DHT22;4925;52.588;13.370;2022-09-12T02:02:06;13.60;99.90
9772;DHT22;4925;52.588;13.370;2022-09-12T02:04:39;12.70;99.90
9772;DHT22;4925;52.588;13.370;2022-09-12T02:07:22;13.60;99.90
9772;DHT22;4925;52.588;13.370;2022-09-12T02:10:01;13.50;99.90
9772;DHT22;4925;52.588;13.370;2022-09-12T02:12:36;13.60;99.90
9772;DHT22;4925;52.588;13.370;2022-09-12T02:15:06;13.50;99.90
9772;DHT22;4925;52.588;13.370;2022-09-12T02:17:38;13.50;99.90
9772;DHT22;4925;52.588;13.370;2022-09-12T02:20:11;13.50;99.90
9772;DHT22;4925;52.588;13.370;2022-09-12T02:22:40;13.50;99.90
9772;DHT22;4925;52.588;13.370;2022-09-12T02:25:08;13.50;99.90
9772;DHT22;4925;52.588;13.370;2022-09-12T02:27:59;14.40;99.90
9772;DHT22;4925;52.588;13.370;2022-09-12T02:30:36;13.40;99.90
9772;DHT22;4925;52.588;13.370;2022-09-12T02:33:10;13.40;99.90
9772;DHT22;4925;52.588;13.370;2022-09-12T02:35:40;13.30;99.90
9772;DHT22;4925;52.588;13.370;2022-09-12T02:38:25;13.30;99.90
9772;DHT22;4925;52.588;13.370;2022-09-12T02:40:52;13.30;99.90
9772;DHT22;4925;52.588;13.370;2022-09-12T02:43:18;13.30;99.90
9772;DHT22;4925;52.588;13.370;2022-09-12T02:45:44;13.30;99.90
9772;DHT22;4925;52.588;13.370;2022-09-12T02:48:26;13.30;99.90
9772;DHT22;4925;52.588;13.370;2022-09-12T02:50:52;13.30;99.90
9772;DHT22;4925;52.588;13.370;2022-09-12T02:53:18;13.30;99.90
9772;DHT22;4925;52.588;13.370;2022-09-12T02:55:44;14.50;99.90
9772;DHT22;4925;52.588;13.370;2022-09-12T02:58:14;13.30;99.90
9772;DHT22;4925;52.588;13.370;2022-09-12T03:03:51;13.20;99.90
9772;DHT22;4925;52.588;13.370;2022-09-12T03:09:02;13.20;99.90
9772;DHT22;4925;52.588;13.370;2022-09-12T03:11:38;13.20;99.90
9772;DHT22;4925;52.588;13.370;2022-09-12T03:17:02;13.10;99.90
9772;DHT22;4925;52.588;13.370;2022-09-12T03:19:39;13.10;99.90
9772;DHT22;4925;52.588;13.370;2022-09-12T03:22:14;13.00;99.90
9772;DHT22;4925;52.588;13.370;2022-09-12T03:25:11;13.00;99.90
9772;DHT22;4925;52.588;13.370;2022-09-12T03:27:50;13.00;99.90
9772;DHT22;4925;52.588;13.370;2022-09-12T03:30:17;13.10;99.90
9772;DHT22;4925;52.588;13.370;2022-09-12T03:32:48;13.00;99.90
9772;DHT22;4925;52.588;13.370;2022-09-12T03:35:16;13.10;99.90
9772;DHT22;4925;52.588;13.370;2022-09-12T03:37:42;13.50;99.90
9772;DHT22;4925;52.588;13.370;2022-09-12T03:40:09;13.00;99.90
9772;DHT22;4925;52.588;13.370;2022-09-12T03:42:37;12.90;99.90
9772;DHT22;4925;52.588;13.370;2022-09-12T03:45:04;12.90;99.90
9772;DHT22;4925;52.588;13.370;2022-09-12T03:47:30;12.90;99.90
9772;DHT22;4925;52.588;13.370;2022-09-12T03:49:56;12.90;99.90
9772;DHT22;4925;52.588;13.370;2022-09-12T03:52:21;12.90;99.90
9772;DHT22;4925;52.588;13.370;2022-09-12T03:57:13;12.90;99.90
9772;DHT22;4925;52.588;13.370;2022-09-12T03:59:38;12.90;99.90
9772;DHT22;4925;52.588;13.370;2022-09-12T04:02:04;12.80;99.90
9772;DHT22;4925;52.588;13.370;2022-09-12T04:04:30;13.00;99.90
9772;DHT22;4925;52.588;13.370;2022-09-12T04:06:55;12.80;99.90
9772;DHT22;4925;52.588;13.370;2022-09-12T04:09:21;13.40;99.90
9772;DHT22;4925;52.588;13.370;2022-09-12T04:11:47;12.80;99.90
9772;DHT22;4925;52.588;13.370;2022-09-12T04:14:12;12.80;99.90
9772;DHT22;4925;52.588;13.370;2022-09-12T04:16:38;12.70;99.90
9772;DHT22;4925;52.588;13.370;2022-09-12T04:19:03;12.70;99.90
9772;DHT22;4925;52.588;13.370;2022-09-12T04:21:29;12.80;99.90
9772;DHT22;4925;52.588;13.370;2022-09-12T04:23:55;12.80;99.90
9772;DHT22;4925;52.588;13.370;2022-09-12T04:26:21;12.80;99.90
9772;DHT22;4925;52.588;13.370;2022-09-12T04:28:47;12.80;99.90
9772;DHT22;4925;52.588;13.370;2022-09-12T04:31:17;12.80;99.90
9772;DHT22;4925;52.588;13.370;2022-09-12T04:33:45;12.90;99.90
9772;DHT22;4925;52.588;13.370;2022-09-12T04:36:13;13.80;99.90
9772;DHT22;4925;52.588;13.370;2022-09-12T04:38:41;12.80;99.90
9772;DHT22;4925;52.588;13.370;2022-09-12T04:41:14;12.80;99.90
9772;DHT22;4925;52.588;13.370;2022-09-12T04:43:41;12.80;99.90
9772;DHT22;4925;52.588;13.370;2022-09-12T04:46:09;12.80;99.90
9772;DHT22;4925;52.588;13.370;2022-09-12T04:48:36;12.80;99.90
9772;DHT22;4925;52.588;13.370;2022-09-12T04:51:16;12.70;99.90
9772;DHT22;4925;52.588;13.370;2022-09-12T04:53:46;12.70;99.90
9772;DHT22;4925;52.588;13.370;2022-09-12T04:56:12;12.70;99.90
9772;DHT22;4925;52.588;13.370;2022-09-12T04:58:37;12.60;99.90
9772;DHT22;4925;52.588;13.370;2022-09-12T05:01:08;12.80;99.90
9772;DHT22;4925;52.588;13.370;2022-09-12T05:03:35;12.70;99.90
9772;DHT22;4925;52.588;13.370;2022-09-12T05:06:04;12.70;99.90
9772;DHT22;4925;52.588;13.370;2022-09-12T05:08:30;12.70;99.90
9772;DHT22;4925;52.588;13.370;2022-09-12T05:10:56;12.80;99.90
9772;DHT22;4925;52.588;13.370;2022-09-12T05:13:25;12.80;99.90
9772;DHT22;4925;52.588;13.370;2022-09-12T05:16:02;12.90;99.90
9772;DHT22;4925;52.588;13.370;2022-09-12T05:18:29;12.90;99.90
9772;DHT22;4925;52.588;13.370;2022-09-12T05:20:58;13.20;99.90
9772;DHT22;4925;52.588;13.370;2022-09-12T05:23:24;13.00;99.90
9772;DHT22;4925;52.588;13.370;2022-09-12T05:25:54;13.30;99.90
9772;DHT22;4925;52.588;13.370;2022-09-12T05:28:20;13.10;99.90
9772;DHT22;4925;52.588;13.370;2022-09-12T05:30:47;13.20;99.90
9772;DHT22;4925;52.588;13.370;2022-09-12T05:33:13;13.30;99.90
9772;DHT22;4925;52.588;13.370;2022-09-12T05:35:39;13.30;99.90
9772;DHT22;4925;52.588;13.370;2022-09-12T05:38:06;13.30;99.90
9772;DHT22;4925;52.588;13.370;2022-09-12T05:40:32;13.40;99.90
9772;DHT22;4925;52.588;13.370;2022-09-12T05:42:58;13.50;99.90
9772;DHT22;4925;52.588;13.370;2022-09-12T05:45:23;13.50;99.90
9772;DHT22;4925;52.588;13.370;2022-09-12T05:47:50;13.50;99.90
9772;DHT22;4925;52.588;13.370;2022-09-12T05:50:17;13.60;99.90
9772;DHT22;4925;52.588;13.370;2022-09-12T05:52:42;13.70;99.90
9772;DHT22;4925;52.588;13.370;2022-09-12T05:55:08;13.70;99.90
9772;DHT22;4925;52.588;13.370;2022-09-12T05:57:34;13.80;99.90
9772;DHT22;4925;52.588;13.370;2022-09-12T06:00:00;13.80;99.90
9772;DHT22;4925;52.588;13.370;2022-09-12T06:02:26;13.90;99.90
9772;DHT22;4925;52.588;13.370;2022-09-12T06:04:51;13.90;99.90
9772;DHT22;4925;52.588;13.370;2022-09-12T06:07:17;13.90;99.90
9772;DHT22;4925;52.588;13.370;2022-09-12T06:09:42;14.00;99.90
9772;DHT22;4925;52.588;13.370;2022-09-12T06:12:08;14.10;99.90
9772;DHT22;4925;52.588;13.370;2022-09-12T06:14:33;14.20;99.90
9772;DHT22;4925;52.588;13.370;2022-09-12T06:16:59;14.20;99.90
9772;DHT22;4925;52.588;13.370;2022-09-12T06:19:25;14.30;99.90
9772;DHT22;4925;52.588;13.370;2022-09-12T06:21:52;14.40;99.90
9772;DHT22;4925;52.588;13.370;2022-09-12T06:24:19;15.10;99.90
9772;DHT22;4925;52.588;13.370;2022-09-12T06:26:46;14.30;99.90
9772;DHT22;4925;52.588;13.370;2022-09-12T06:29:12;14.40;99.90
9772;DHT22;4925;52.588;13.370;2022-09-12T06:34:08;14.50;99.90
9772;DHT22;4925;52.588;13.370;2022-09-12T06:36:40;14.60;99.90
9772;DHT22;4925;52.588;13.370;2022-09-12T06:39:10;14.70;99.90
9772;DHT22;4925;52.588;13.370;2022-09-12T06:41:36;14.80;99.90
9772;DHT22;4925;52.588;13.370;2022-09-12T06:44:02;15.00;99.90
9772;DHT22;4925;52.588;13.370;2022-09-12T06:46:28;15.00;99.90
9772;DHT22;4925;52.588;13.370;2022-09-12T06:48:56;15.20;99.90
9772;DHT22;4925;52.588;13.370;2022-09-12T06:51:23;15.30;99.90
9772;DHT22;4925;52.588;13.370;2022-09-12T06:53:49;15.40;99.90
9772;DHT22;4925;52.588;13.370;2022-09-12T06:56:19;15.50;99.90
9772;DHT22;4925;52.588;13.370;2022-09-12T06:58:51;15.70;99.90
9772;DHT22;4925;52.588;13.370;2022-09-12T07:01:29;15.80;99.90
9772;DHT22;4925;52.588;13.370;2022-09-12T07:03:57;15.90;99.90
9772;DHT22;4925;52.588;13.370;2022-09-12T07:06:26;16.10;99.90
9772;DHT22;4925;52.588;13.370;2022-09-12T07:09:00;16.10;99.90
9772;DHT22;4925;52.588;13.370;2022-09-12T07:11:28;16.20;99.90
9772;DHT22;4925;52.588;13.370;2022-09-12T07:13:57;16.20;99.90
9772;DHT22;4925;52.588;13.370;2022-09-12T07:16:24;16.20;99.90
9772;DHT22;4925;52.588;13.370;2022-09-12T07:18:51;16.30;99.90
9772;DHT22;4925;52.588;13.370;2022-09-12T07:21:23;16.30;99.90
9772;DHT22;4925;52.588;13.370;2022-09-12T07:23:49;16.40;99.90
9772;DHT22;4925;52.588;13.370;2022-09-12T07:26:16;16.50;99.90
9772;DHT22;4925;52.588;13.370;2022-09-12T07:28:42;16.70;99.90
9772;DHT22;4925;52.588;13.370;2022-09-12T07:31:13;16.70;99.90
9772;DHT22;4925;52.588;13.370;2022-09-12T07:33:40;16.80;99.90
9772;DHT22;4925;52.588;13.370;2022-09-12T07:36:11;16.90;99.90
9772;DHT22;4925;52.588;13.370;2022-09-12T07:38:38;17.00;99.90
9772;DHT22;4925;52.588;13.370;2022-09-12T07:41:18;17.10;99.90
9772;DHT22;4925;52.588;13.370;2022-09-12T07:43:46;17.20;99.90
9772;DHT22;4925;52.588;13.370;2022-09-12T07:46:12;17.20;99.90
9772;DHT22;4925;52.588;13.370;2022-09-12T07:48:39;17.80;99.90
9772;DHT22;4925;52.588;13.370;2022-09-12T07:51:07;17.50;99.90
9772;DHT22;4925;52.588;13.370;2022-09-12T07:53:39;17.60;99.90
9772;DHT22;4925;52.588;13.370;2022-09-12T07:56:06;17.60;99.90
9772;DHT22;4925;52.588;13.370;2022-09-12T07:58:33;17.70;99.90
9772;DHT22;4925;52.588;13.370;2022-09-12T08:01:08;17.80;99.90
9772;DHT22;4925;52.588;13.370;2022-09-12T08:03:35;17.90;99.90
9772;DHT22;4925;52.588;13.370;2022-09-12T08:06:04;18.00;99.90
9772;DHT22;4925;52.588;13.370;2022-09-12T08:08:30;18.00;99.90
9772;DHT22;4925;52.588;13.370;2022-09-12T08:10:58;18.10;99.90
9772;DHT22;4925;52.588;13.370;2022-09-12T08:13:25;18.20;99.90
9772;DHT22;4925;52.588;13.370;2022-09-12T08:15:51;18.30;99.90
9772;DHT22;4925;52.588;13.370;2022-09-12T08:18:16;18.40;99.90
9772;DHT22;4925;52.588;13.370;2022-09-12T08:20:42;18.40;99.90
9772;DHT22;4925;52.588;13.370;2022-09-12T08:23:07;18.40;99.90
9772;DHT22;4925;52.588;13.370;2022-09-12T08:25:33;18.60;99.90
9772;DHT22;4925;52.588;13.370;2022-09-12T08:27:59;18.00;99.90
9772;DHT22;4925;52.588;13.370;2022-09-12T08:30:26;18.00;99.90
9772;DHT22;4925;52.588;13.370;2022-09-12T08:32:51;18.50;99.90
9772;DHT22;4925;52.588;13.370;2022-09-12T08:35:17;18.10;99.90
9772;DHT22;4925;52.588;13.370;2022-09-12T08:37:42;18.30;99.90
9772;DHT22;4925;52.588;13.370;2022-09-12T08:40:14;18.40;99.90
9772;DHT22;4925;52.588;13.370;2022-09-12T08:42:52;18.60;99.90
9772;DHT22;4925;52.588;13.370;2022-09-12T08:45:29;18.70;99.90
9772;DHT22;4925;52.588;13.370;2022-09-12T08:47:58;18.80;99.90
9772;DHT22;4925;52.588;13.370;2022-09-12T08:50:26;18.90;99.90
9772;DHT22;4925;52.588;13.370;2022-09-12T08:58:17;19.00;99.90
9772;DHT22;4925;52.588;13.370;2022-09-12T09:09:01;18.80;99.90
9772;DHT22;4925;52.588;13.370;2022-09-12T09:11:45;18.90;99.90
9772;DHT22;4925;52.588;13.370;2022-09-12T09:14:47;19.00;99.90
9772;DHT22;4925;52.588;13.370;2022-09-12T09:20:22;19.30;99.90
9772;DHT22;4925;52.588;13.370;2022-09-12T09:23:21;19.30;99.90
9772;DHT22;4925;52.588;13.370;2022-09-12T09:28:49;19.40;99.90
9772;DHT22;4925;52.588;13.370;2022-09-12T09:31:19;19.40;99.90
9772;DHT22;4925;52.588;13.370;2022-09-12T09:33:50;19.60;99.90
9772;DHT22;4925;52.588;13.370;2022-09-12T09:36:20;19.50;99.90
9772;DHT22;4925;52.588;13.370;2022-09-12T09:44:43;19.90;99.90
9772;DHT22;4925;52.588;13.370;2022-09-12T09:47:11;19.90;99.90
9772;DHT22;4925;52.588;13.370;2022-09-12T09:49:37;20.00;99.90
9772;DHT22;4925;52.588;13.370;2022-09-12T09:52:05;20.00;99.90
9772;DHT22;4925;52.588;13.370;2022-09-12T09:54:49;20.20;99.90
9772;DHT22;4925;52.588;13.370;2022-09-12T10:05:46;20.40;99.90
9772;DHT22;4925;52.588;13.370;2022-09-12T10:08:30;20.20;99.90
9772;DHT22;4925;52.588;13.370;2022-09-12T10:13:51;20.10;99.90
9772;DHT22;4925;52.588;13.370;2022-09-12T10:16:32;20.30;99.90
9772;DHT22;4925;52.588;13.370;2022-09-12T10:19:00;20.50;99.90
9772;DHT22;4925;52.588;13.370;2022-09-12T10:21:39;20.70;99.90
9772;DHT22;4925;52.588;13.370;2022-09-12T10:24:38;20.70;99.90
9772;DHT22;4925;52.588;13.370;2022-09-12T10:29:42;21.20;99.90
9772;DHT22;4925;52.588;13.370;2022-09-12T10:32:10;21.30;99.90
9772;DHT22;4925;52.588;13.370;2022-09-12T10:34:41;21.30;99.90
9772;DHT22;4925;52.588;13.370;2022-09-12T10:37:09;21.40;99.90
9772;DHT22;4925;52.588;13.370;2022-09-12T10:39:53;21.60;99.90
9772;DHT22;4925;52.588;13.370;2022-09-12T10:42:49;21.60;99.90
9772;DHT22;4925;52.588;13.370;2022-09-12T10:48:01;21.90;99.90
9772;DHT22;4925;52.588;13.370;2022-09-12T10:50:30;22.10;99.90
9772;DHT22;4925;52.588;13.370;2022-09-12T10:53:27;22.30;99.90
9772;DHT22;4925;52.588;13.370;2022-09-12T10:56:09;22.50;99.90
9772;DHT22;4925;52.588;13.370;2022-09-12T11:04:42;23.10;99.90
9772;DHT22;4925;52.588;13.370;2022-09-12T11:07:42;23.50;99.90
9772;DHT22;4925;52.588;13.370;2022-09-12T11:21:38;24.20;97.40
9772;DHT22;4925;52.588;13.370;2022-09-12T11:29:47;24.60;96.50
9772;DHT22;4925;52.588;13.370;2022-09-12T11:32:31;24.70;95.50
9772;DHT22;4925;52.588;13.370;2022-09-12T11:37:50;24.50;96.60
9772;DHT22;4925;52.588;13.370;2022-09-12T11:43:39;24.20;95.80
9772;DHT22;4925;52.588;13.370;2022-09-12T11:46:22;24.30;96.50
9772;DHT22;4925;52.588;13.370;2022-09-12T11:51:39;24.80;95.70
9772;DHT22;4925;52.588;13.370;2022-09-12T11:57:54;25.10;95.10
9772;DHT22;4925;52.588;13.370;2022-09-12T11:59:58;25.40;94.60
9772;DHT22;4925;52.588;13.370;2022-09-12T12:08:17;25.80;92.50
9772;DHT22;4925;52.588;13.370;2022-09-12T12:10:52;25.40;92.10
9772;DHT22;4925;52.588;13.370;2022-09-12T12:13:27;25.10;92.70
9772;DHT22;4925;52.588;13.370;2022-09-12T12:15:58;24.70;93.00
9772;DHT22;4925;52.588;13.370;2022-09-12T12:18:29;24.30;93.20
9772;DHT22;4925;52.588;13.370;2022-09-12T12:21:18;24.10;93.40
9772;DHT22;4925;52.588;13.370;2022-09-12T12:24:21;24.20;93.00
9772;DHT22;4925;52.588;13.370;2022-09-12T12:27:22;24.00;93.40
9772;DHT22;4925;52.588;13.370;2022-09-12T12:29:43;23.80;93.90
9772;DHT22;4925;52.588;13.370;2022-09-12T12:34:43;24.00;94.40
9772;DHT22;4925;52.588;13.370;2022-09-12T12:39:55;24.50;93.90
9772;DHT22;4925;52.588;13.370;2022-09-12T12:45:01;25.30;93.00
9772;DHT22;4925;52.588;13.370;2022-09-12T12:47:46;25.40;91.80
9772;DHT22;4925;52.588;13.370;2022-09-12T12:50:21;25.40;91.40
9772;DHT22;4925;52.588;13.370;2022-09-12T12:53:02;25.40;91.60
9772;DHT22;4925;52.588;13.370;2022-09-12T12:55:36;25.40;92.10
9772;DHT22;4925;52.588;13.370;2022-09-12T12:58:04;25.30;91.70
9772;DHT22;4925;52.588;13.370;2022-09-12T13:00:34;25.10;92.10
9772;DHT22;4925;52.588;13.370;2022-09-12T13:08:25;24.30;92.80
9772;DHT22;4925;52.588;13.370;2022-09-12T13:13:31;23.50;94.20
9772;DHT22;4925;52.588;13.370;2022-09-12T13:15:57;23.40;95.10
9772;DHT22;4925;52.588;13.370;2022-09-12T13:18:32;23.50;95.10
9772;DHT22;4925;52.588;13.370;2022-09-12T13:21:06;23.70;94.90
9772;DHT22;4925;52.588;13.370;2022-09-12T13:23:33;23.80;93.40
9772;DHT22;4925;52.588;13.370;2022-09-12T13:26:00;23.90;93.90
9772;DHT22;4925;52.588;13.370;2022-09-12T13:28:28;23.90;93.50
9772;DHT22;4925;52.588;13.370;2022-09-12T13:39:12;23.20;93.70
9772;DHT22;4925;52.588;13.370;2022-09-12T13:42:01;23.00;93.50
9772;DHT22;4925;52.588;13.370;2022-09-12T13:44:45;23.00;93.80
9772;DHT22;4925;52.588;13.370;2022-09-12T13:47:35;22.90;94.20
9772;DHT22;4925;52.588;13.370;2022-09-12T13:50:03;22.90;94.30
9772;DHT22;4925;52.588;13.370;2022-09-12T13:52:32;22.90;94.80
9772;DHT22;4925;52.588;13.370;2022-09-12T13:54:59;22.90;95.00
9772;DHT22;4925;52.588;13.370;2022-09-12T13:57:34;22.90;94.90
9772;DHT22;4925;52.588;13.370;2022-09-12T14:00:17;22.80;95.00
9772;DHT22;4925;52.588;13.370;2022-09-12T14:02:44;22.80;95.30
9772;DHT22;4925;52.588;13.370;2022-09-12T14:05:19;23.30;96.00
9772;DHT22;4925;52.588;13.370;2022-09-12T14:07:56;22.70;95.80
9772;DHT22;4925;52.588;13.370;2022-09-12T14:10:37;22.50;96.10
9772;DHT22;4925;52.588;13.370;2022-09-12T14:13:09;22.50;96.50
9772;DHT22;4925;52.588;13.370;2022-09-12T14:15:37;22.50;97.00
9772;DHT22;4925;52.588;13.370;2022-09-12T14:18:05;22.40;97.00
9772;DHT22;4925;52.588;13.370;2022-09-12T14:20:36;22.40;97.30
9772;DHT22;4925;52.588;13.370;2022-09-12T14:23:20;22.40;96.50
9772;DHT22;4925;52.588;13.370;2022-09-12T14:25:50;22.40;96.90
9772;DHT22;4925;52.588;13.370;2022-09-12T14:28:16;22.20;97.40
9772;DHT22;4925;52.588;13.370;2022-09-12T14:31:00;22.20;96.40
9772;DHT22;4925;52.588;13.370;2022-09-12T14:33:27;22.10;95.50
9772;DHT22;4925;52.588;13.370;2022-09-12T14:36:21;20.90;95.40
9772;DHT22;4925;52.588;13.370;2022-09-12T14:39:02;21.90;96.60
9772;DHT22;4925;52.588;13.370;2022-09-12T14:41:47;21.90;95.80
9772;DHT22;4925;52.588;13.370;2022-09-12T14:44:18;21.80;96.00
9772;DHT22;4925;52.588;13.370;2022-09-12T14:46:46;21.90;95.90
9772;DHT22;4925;52.588;13.370;2022-09-12T14:49:34;21.80;96.30
9772;DHT22;4925;52.588;13.370;2022-09-12T14:52:03;21.80;96.00
9772;DHT22;4925;52.588;13.370;2022-09-12T14:56:55;21.80;96.60
9772;DHT22;4925;52.588;13.370;2022-09-12T15:07:40;21.60;98.30
9772;DHT22;4925;52.588;13.370;2022-09-12T15:12:46;21.40;97.20
9772;DHT22;4925;52.588;13.370;2022-09-12T15:15:21;21.50;97.60
9772;DHT22;4925;52.588;13.370;2022-09-12T15:17:46;21.40;97.60
9772;DHT22;4925;52.588;13.370;2022-09-12T15:20:13;21.40;98.30
9772;DHT22;4925;52.588;13.370;2022-09-12T15:22:39;21.40;97.90
9772;DHT22;4925;52.588;13.370;2022-09-12T15:25:06;21.40;98.10
9772;DHT22;4925;52.588;13.370;2022-09-12T15:27:32;21.30;97.60
9772;DHT22;4925;52.588;13.370;2022-09-12T15:29:57;21.20;97.60
9772;DHT22;4925;52.588;13.370;2022-09-12T15:32:28;21.20;98.00
9772;DHT22;4925;52.588;13.370;2022-09-12T15:34:54;21.20;98.00
9772;DHT22;4925;52.588;13.370;2022-09-12T15:37:21;23.30;99.20
9772;DHT22;4925;52.588;13.370;2022-09-12T15:39:48;21.20;98.40
9772;DHT22;4925;52.588;13.370;2022-09-12T15:42:14;21.10;98.80
9772;DHT22;4925;52.588;13.370;2022-09-12T15:44:40;21.10;99.20
9772;DHT22;4925;52.588;13.370;2022-09-12T15:47:11;21.10;99.80
9772;DHT22;4925;52.588;13.370;2022-09-12T15:49:37;21.10;99.90
9772;DHT22;4925;52.588;13.370;2022-09-12T15:52:02;21.00;99.20
9772;DHT22;4925;52.588;13.370;2022-09-12T15:54:28;21.00;99.30
9772;DHT22;4925;52.588;13.370;2022-09-12T15:56:54;21.00;99.60
9772;DHT22;4925;52.588;13.370;2022-09-12T15:59:19;20.90;99.90
9772;DHT22;4925;52.588;13.370;2022-09-12T16:01:45;20.80;99.90
9772;DHT22;4925;52.588;13.370;2022-09-12T16:04:20;20.80;99.90
9772;DHT22;4925;52.588;13.370;2022-09-12T16:06:47;20.70;99.90
9772;DHT22;4925;52.588;13.370;2022-09-12T16:09:13;20.70;99.90
9772;DHT22;4925;52.588;13.370;2022-09-12T16:14:06;20.60;99.90
9772;DHT22;4925;52.588;13.370;2022-09-12T16:16:32;20.60;99.90
9772;DHT22;4925;52.588;13.370;2022-09-12T16:18:57;20.60;99.90
9772;DHT22;4925;52.588;13.370;2022-09-12T16:21:23;20.50;99.90
9772;DHT22;4925;52.588;13.370;2022-09-12T16:23:49;20.60;99.90
9772;DHT22;4925;52.588;13.370;2022-09-12T16:26:16;20.50;99.90
9772;DHT22;4925;52.588;13.370;2022-09-12T16:28:41;20.50;99.90
9772;DHT22;4925;52.588;13.370;2022-09-12T16:31:11;20.50;99.90
9772;DHT22;4925;52.588;13.370;2022-09-12T16:33:37;20.40;99.90
9772;DHT22;4925;52.588;13.370;2022-09-12T16:36:09;20.40;99.90
9772;DHT22;4925;52.588;13.370;2022-09-12T16:39:01;20.30;99.90
9772;DHT22;4925;52.588;13.370;2022-09-12T16:41:27;20.20;99.90
9772;DHT22;4925;52.588;13.370;2022-09-12T16:43:53;20.20;99.90
9772;DHT22;4925;52.588;13.370;2022-09-12T16:46:21;20.20;99.90
9772;DHT22;4925;52.588;13.370;2022-09-12T16:48:49;20.20;99.90
9772;DHT22;4925;52.588;13.370;2022-09-12T16:51:17;20.10;99.90
9772;DHT22;4925;52.588;13.370;2022-09-12T16:53:44;20.10;99.90
9772;DHT22;4925;52.588;13.370;2022-09-12T16:58:39;20.00;99.90
9772;DHT22;4925;52.588;13.370;2022-09-12T17:01:07;20.10;99.90
9772;DHT22;4925;52.588;13.370;2022-09-12T17:03:34;20.20;99.90
9772;DHT22;4925;52.588;13.370;2022-09-12T17:06:11;20.20;99.90
9772;DHT22;4925;52.588;13.370;2022-09-12T17:08:39;20.20;99.90
9772;DHT22;4925;52.588;13.370;2022-09-12T17:13:52;20.10;99.90
9772;DHT22;4925;52.588;13.370;2022-09-12T17:16:18;20.00;99.90
9772;DHT22;4925;52.588;13.370;2022-09-12T17:18:45;19.90;99.90
9772;DHT22;4925;52.588;13.370;2022-09-12T17:21:11;19.90;99.90
9772;DHT22;4925;52.588;13.370;2022-09-12T17:23:37;19.80;99.90
9772;DHT22;4925;52.588;13.370;2022-09-12T17:26:03;19.80;99.90
9772;DHT22;4925;52.588;13.370;2022-09-12T17:28:29;19.70;99.90
9772;DHT22;4925;52.588;13.370;2022-09-12T17:30:59;19.60;99.90
9772;DHT22;4925;52.588;13.370;2022-09-12T17:33:26;19.60;99.90
9772;DHT22;4925;52.588;13.370;2022-09-12T17:35:52;19.50;99.90
9772;DHT22;4925;52.588;13.370;2022-09-12T17:38:18;19.40;99.90
9772;DHT22;4925;52.588;13.370;2022-09-12T17:40:45;19.90;99.90
9772;DHT22;4925;52.588;13.370;2022-09-12T17:43:11;19.30;99.90
9772;DHT22;4925;52.588;13.370;2022-09-12T17:45:38;19.30;99.90
9772;DHT22;4925;52.588;13.370;2022-09-12T17:48:04;19.20;99.90
9772;DHT22;4925;52.588;13.370;2022-09-12T17:50:34;19.00;99.90
9772;DHT22;4925;52.588;13.370;2022-09-12T17:53:00;19.10;99.90
9772;DHT22;4925;52.588;13.370;2022-09-12T17:55:25;19.00;99.90
9772;DHT22;4925;52.588;13.370;2022-09-12T17:57:51;18.90;99.90
9772;DHT22;4925;52.588;13.370;2022-09-12T18:00:17;18.90;99.90
9772;DHT22;4925;52.588;13.370;2022-09-12T18:03:03;18.80;99.90
9772;DHT22;4925;52.588;13.370;2022-09-12T18:05:28;18.80;99.90
9772;DHT22;4925;52.588;13.370;2022-09-12T18:07:54;18.70;99.90
9772;DHT22;4925;52.588;13.370;2022-09-12T18:10:19;18.80;99.90
9772;DHT22;4925;52.588;13.370;2022-09-12T18:12:45;18.80;99.90
9772;DHT22;4925;52.588;13.370;2022-09-12T18:15:11;18.70;99.90
9772;DHT22;4925;52.588;13.370;2022-09-12T18:17:37;18.80;99.90
9772;DHT22;4925;52.588;13.370;2022-09-12T18:20:04;18.60;99.90
9772;DHT22;4925;52.588;13.370;2022-09-12T18:22:30;18.50;99.90
9772;DHT22;4925;52.588;13.370;2022-09-12T18:24:56;18.50;99.90
9772;DHT22;4925;52.588;13.370;2022-09-12T18:27:21;19.60;99.90
9772;DHT22;4925;52.588;13.370;2022-09-12T18:29:47;18.40;99.90
9772;DHT22;4925;52.588;13.370;2022-09-12T18:34:39;18.30;99.90
9772;DHT22;4925;52.588;13.370;2022-09-12T18:37:04;18.10;99.90
9772;DHT22;4925;52.588;13.370;2022-09-12T18:39:31;18.40;99.90
9772;DHT22;4925;52.588;13.370;2022-09-12T18:41:57;18.00;99.90
9772;DHT22;4925;52.588;13.370;2022-09-12T18:44:22;18.00;99.90
9772;DHT22;4925;52.588;13.370;2022-09-12T18:46:48;18.00;99.90